WSAP/QPG METAR and TAF weather

Enter ICAO airport designator
Station Type Date Time Source
WSAP METAR 2022/10/01 08:00 UTC NOAA

WSAP 010800Z 05004KT 9999 FEW018TCU BKN150 29/23 Q1007


Station Type Date Time Source
WSAP Decoded METAR 2022/10/01 08:00 UTC NOAA

Singapore / Paya Lebar, Singapore (WSAP) 01-22N 103-55E 32M
Oct 01, 2022 - 04:00 AM EDT / 2022.10.01 0800 UTC
Wind: from the NE (050 degrees) at 5 MPH (4 KT):0
Visibility: greater than 7 mile(s):0
Sky conditions: mostly cloudy
Weather: Towering cumulus clouds observed
Temperature: 84 F (29 C)
Dew Point: 73 F (23 C)
Relative Humidity: 70%
Pressure (altimeter): 29.74 in. Hg (1007 hPa)
ob: WSAP 010800Z 05004KT 9999 FEW018TCU BKN150 29/23 Q1007
cycle: 8

Station Type Date Time Source
WSAP TAF 2022/10/01 08:04 UTC NOAA

TAF
AMD WSAP 010800Z 0108/0212 30005KT 9999 FEW015 BKN020
TEMPO 0206/0210 3000 TSRA FEW012CB BKN015

Example: see airport list